Time;durP1;ratioP1;P1;durP2;ratioP2;P2;SDS_P1;SDS_P2;PMS_P1;PMS_P2;Temp;Humidity;BMP_temperature;BMP_pressure;BME280_temperature;BME280_humidity;BME280_pressure;Samples;Min_cycle;Max_cycle;Signal;HPM_P1;HPM_P2
2022/09/30 00:02:17;;;;;;;;;;;7.80;99.90;;;;;;5128191;27;19912;-74
2022/09/30 00:04:43;;;;;;;;;;;7.80;99.90;;;;;;5122868;27;21065;-74
2022/09/30 00:07:09;;;;;;;;;;;7.70;99.90;;;;;;5130108;27;19961;-74
2022/09/30 00:09:34;;;;;;;;;;;7.70;99.90;;;;;;5103948;27;19920;-74
2022/09/30 00:12:00;;;;;;;;;;;7.70;99.90;;;;;;5148235;27;19919;-74
2022/09/30 00:14:25;;;;;;;;;;;7.70;99.90;;;;;;5130865;27;19912;-74
2022/09/30 00:16:51;;;;;;;;;;;7.80;99.90;;;;;;5124024;27;19972;-74
2022/09/30 00:19:16;;;;;;;;;;;7.80;99.90;;;;;;5126001;27;19963;-73
2022/09/30 00:21:42;;;;;;;;;;;7.80;99.90;;;;;;5113940;27;19912;-74
2022/09/30 00:24:08;;;;;;;;;;;7.80;99.90;;;;;;5112222;27;19920;-74
2022/09/30 00:26:34;;;;;;;;;;;7.70;99.90;;;;;;5105190;27;20002;-74
2022/09/30 00:29:00;;;;;;;;;;;7.70;99.90;;;;;;5127776;27;20418;-74
2022/09/30 00:31:27;;;;;;;;;;;7.70;99.90;;;;;;5123309;27;20343;-74
2022/09/30 00:34:05;;;;;;;;;;;7.80;99.90;;;;;;5129663;27;20041;-74
2022/09/30 00:36:51;;;;;;;;;;;7.80;99.90;;;;;;5131382;27;19911;-73
2022/09/30 00:39:21;;;;;;;;;;;7.80;99.90;;;;;;5127979;27;19918;-74
2022/09/30 00:41:47;;;;;;;;;;;7.80;99.90;;;;;;5108623;27;19926;-74
2022/09/30 00:44:32;;;;;;;;;;;7.90;99.90;;;;;;5126943;27;19912;-74
2022/09/30 00:46:58;;;;;;;;;;;8.00;99.90;;;;;;5126428;27;19919;-74
2022/09/30 00:49:24;;;;;;;;;;;8.00;99.90;;;;;;5128127;27;20021;-74
2022/09/30 00:51:54;;;;;;;;;;;8.00;99.90;;;;;;5127009;27;20237;-74
2022/09/30 00:54:25;;;;;;;;;;;8.00;99.90;;;;;;5112843;27;20325;-74
2022/09/30 00:56:56;;;;;;;;;;;7.90;99.90;;;;;;5122307;27;19912;-74
2022/09/30 00:59:24;;;;;;;;;;;8.00;99.90;;;;;;5121633;27;19911;-74
2022/09/30 01:01:50;;;;;;;;;;;8.00;99.90;;;;;;5114885;27;19911;-74
2022/09/30 01:04:19;;;;;;;;;;;8.00;99.90;;;;;;5124911;27;20512;-74
2022/09/30 01:06:45;;;;;;;;;;;8.00;99.90;;;;;;5126690;28;20280;-74
2022/09/30 01:09:11;;;;;;;;;;;8.00;99.90;;;;;;5130412;27;19912;-74
2022/09/30 01:11:36;;;;;;;;;;;7.90;99.90;;;;;;5126656;27;19918;-74
2022/09/30 01:14:04;;;;;;;;;;;7.90;99.90;;;;;;5132958;27;19919;-74
2022/09/30 01:16:33;;;;;;;;;;;8.10;99.90;;;;;;5106557;27;19947;-74
2022/09/30 01:19:02;;;;;;;;;;;8.10;99.90;;;;;;5112357;28;19930;-74
2022/09/30 01:21:46;;;;;;;;;;;8.10;99.90;;;;;;5130954;27;20803;-74
2022/09/30 01:24:16;;;;;;;;;;;8.10;99.90;;;;;;5109821;27;19919;-74
2022/09/30 01:26:41;;;;;;;;;;;8.10;99.90;;;;;;5127162;27;20303;-74
2022/09/30 01:29:07;;;;;;;;;;;8.10;99.90;;;;;;5117215;27;20049;-74
2022/09/30 01:31:41;;;;;;;;;;;8.10;99.90;;;;;;5133599;27;19918;-74
2022/09/30 01:34:10;;;;;;;;;;;8.10;99.90;;;;;;5115426;27;19915;-74
2022/09/30 01:36:54;;;;;;;;;;;8.20;99.90;;;;;;5121679;27;19943;-74
2022/09/30 01:39:20;;;;;;;;;;;8.20;99.90;;;;;;5125440;27;19988;-73
2022/09/30 01:42:00;;;;;;;;;;;8.20;99.90;;;;;;5105227;28;20010;-75
2022/09/30 01:44:36;;;;;;;;;;;8.20;99.90;;;;;;5130773;27;20260;-74
2022/09/30 01:47:02;;;;;;;;;;;8.20;99.90;;;;;;5109881;28;19966;-74
2022/09/30 01:49:37;;;;;;;;;;;8.10;99.90;;;;;;5113566;27;20317;-75
2022/09/30 01:52:03;;;;;;;;;;;8.20;99.90;;;;;;5117715;27;19962;-74
2022/09/30 01:54:35;;;;;;;;;;;8.10;99.90;;;;;;5125220;27;19963;-75
2022/09/30 01:57:04;;;;;;;;;;;8.10;99.90;;;;;;5126271;27;19920;-74
2022/09/30 01:59:52;;;;;;;;;;;8.10;99.90;;;;;;5121585;27;19916;-74
2022/09/30 02:02:20;;;;;;;;;;;8.10;99.90;;;;;;5105574;27;19915;-74
2022/09/30 02:04:58;;;;;;;;;;;8.10;99.90;;;;;;5120184;27;19915;-74
2022/09/30 02:07:38;;;;;;;;;;;8.00;99.90;;;;;;5114448;27;20393;-74
2022/09/30 02:10:19;;;;;;;;;;;8.00;99.90;;;;;;5125112;27;19955;-75
2022/09/30 02:12:48;;;;;;;;;;;8.00;99.90;;;;;;5136645;27;19923;-74
2022/09/30 02:15:17;;;;;;;;;;;8.00;99.90;;;;;;5112213;27;19919;-75
2022/09/30 02:17:45;;;;;;;;;;;8.10;99.90;;;;;;5134357;27;19918;-74
2022/09/30 02:20:12;;;;;;;;;;;8.10;99.90;;;;;;5107082;27;20210;-74
2022/09/30 02:22:46;;;;;;;;;;;8.10;99.90;;;;;;5114704;27;19911;-75
2022/09/30 02:25:21;;;;;;;;;;;8.10;99.90;;;;;;5135035;27;19911;-74
2022/09/30 02:27:52;;;;;;;;;;;8.10;99.90;;;;;;5122905;27;19915;-74
2022/09/30 02:30:18;;;;;;;;;;;8.10;99.90;;;;;;5132265;27;19918;-74
2022/09/30 02:32:44;;;;;;;;;;;8.00;99.90;;;;;;5133860;27;20305;-74
2022/09/30 02:35:12;;;;;;;;;;;8.10;99.90;;;;;;5127092;27;20294;-76
2022/09/30 02:37:41;;;;;;;;;;;8.00;99.90;;;;;;5101358;27;19916;-74
2022/09/30 02:40:19;;;;;;;;;;;8.00;99.90;;;;;;5108333;27;19919;-75
2022/09/30 02:42:45;;;;;;;;;;;8.00;99.90;;;;;;5123016;27;19922;-75
2022/09/30 02:45:15;;;;;;;;;;;8.00;99.90;;;;;;5129480;27;19911;-74
2022/09/30 02:47:46;;;;;;;;;;;8.00;99.90;;;;;;5117921;27;19915;-74
2022/09/30 02:50:16;;;;;;;;;;;7.90;99.90;;;;;;5133615;27;20013;-74
2022/09/30 02:52:51;;;;;;;;;;;7.70;99.90;;;;;;5127281;27;19934;-75
2022/09/30 02:55:29;;;;;;;;;;;7.70;99.90;;;;;;5130501;27;19961;-74
2022/09/30 02:58:09;;;;;;;;;;;7.80;99.90;;;;;;5136647;27;20010;-75
2022/09/30 03:00:34;;;;;;;;;;;7.90;99.90;;;;;;5131064;27;19915;-74
2022/09/30 03:03:06;;;;;;;;;;;7.90;99.90;;;;;;5129761;27;20306;-74
2022/09/30 03:05:31;;;;;;;;;;;7.90;99.90;;;;;;5091481;27;19915;-75
2022/09/30 03:07:57;;;;;;;;;;;7.80;99.90;;;;;;5130545;27;19912;-74
2022/09/30 03:10:23;;;;;;;;;;;7.80;99.90;;;;;;5108647;27;19918;-74
2022/09/30 03:12:54;;;;;;;;;;;7.80;99.90;;;;;;5110928;27;20639;-74
2022/09/30 03:15:26;;;;;;;;;;;7.80;99.90;;;;;;5131378;27;20324;-74
2022/09/30 03:18:07;;;;;;;;;;;7.80;99.90;;;;;;5122276;27;20045;-75
2022/09/30 03:20:33;;;;;;;;;;;7.70;99.90;;;;;;5121048;27;19911;-74
2022/09/30 03:23:17;;;;;;;;;;;7.60;99.90;;;;;;5131699;27;19926;-75
2022/09/30 03:25:59;;;;;;;;;;;7.60;99.90;;;;;;5130333;27;19981;-74
2022/09/30 03:28:31;;;;;;;;;;;7.50;99.90;;;;;;5125271;27;19912;-74
2022/09/30 03:30:56;;;;;;;;;;;7.50;99.90;;;;;;5100051;28;19915;-74
2022/09/30 03:33:24;;;;;;;;;;;7.50;99.90;;;;;;5110488;27;19939;-75
2022/09/30 03:36:02;;;;;;;;;;;7.50;99.90;;;;;;5130427;27;20374;-74
2022/09/30 03:38:33;;;;;;;;;;;7.40;99.90;;;;;;5111253;27;20724;-75
2022/09/30 03:41:04;;;;;;;;;;;7.40;99.90;;;;;;5122044;27;19945;-75
2022/09/30 03:43:35;;;;;;;;;;;7.30;99.90;;;;;;5132840;27;19922;-75
2022/09/30 03:46:21;;;;;;;;;;;7.30;99.90;;;;;;5114955;27;19912;-74
2022/09/30 03:48:48;;;;;;;;;;;7.20;99.90;;;;;;5131301;27;19919;-74
2022/09/30 03:51:14;;;;;;;;;;;7.20;99.90;;;;;;5126318;27;19912;-74
2022/09/30 03:53:40;;;;;;;;;;;7.10;99.90;;;;;;5106282;27;20390;-74
2022/09/30 03:56:06;;;;;;;;;;;7.10;99.90;;;;;;5128914;27;19920;-75
2022/09/30 03:58:31;;;;;;;;;;;7.00;99.90;;;;;;5129970;27;20020;-75
2022/09/30 04:00:57;;;;;;;;;;;7.00;99.90;;;;;;5130850;27;19926;-74
2022/09/30 04:03:25;;;;;;;;;;;7.00;99.90;;;;;;5114687;27;19991;-74
2022/09/30 04:05:50;;;;;;;;;;;7.00;99.90;;;;;;5112674;27;19918;-74
2022/09/30 04:08:16;;;;;;;;;;;7.00;99.90;;;;;;5111125;27;19919;-75
2022/09/30 04:10:42;;;;;;;;;;;7.00;99.90;;;;;;5127954;27;19915;-75
2022/09/30 04:13:08;;;;;;;;;;;6.90;99.90;;;;;;5115647;27;20030;-75
2022/09/30 04:15:35;;;;;;;;;;;7.00;99.90;;;;;;5124284;27;20622;-75
2022/09/30 04:18:01;;;;;;;;;;;7.00;99.90;;;;;;5118101;27;19937;-75
2022/09/30 04:20:26;;;;;;;;;;;6.80;99.90;;;;;;5118545;27;19911;-74
2022/09/30 04:22:52;;;;;;;;;;;7.00;99.90;;;;;;5128992;27;20350;-74
2022/09/30 04:25:17;;;;;;;;;;;6.90;99.90;;;;;;5126459;27;19920;-75
2022/09/30 04:27:43;;;;;;;;;;;6.90;99.90;;;;;;5116775;27;19912;-74
2022/09/30 04:30:08;;;;;;;;;;;6.80;99.90;;;;;;5129111;27;19919;-74
2022/09/30 04:32:34;;;;;;;;;;;6.80;99.90;;;;;;5135374;27;20318;-74
2022/09/30 04:34:59;;;;;;;;;;;6.80;99.90;;;;;;5128212;27;19912;-74
2022/09/30 04:37:25;;;;;;;;;;;6.80;99.90;;;;;;5127858;27;19911;-74
2022/09/30 04:39:51;;;;;;;;;;;6.80;99.90;;;;;;5132234;27;19911;-74
2022/09/30 04:42:17;;;;;;;;;;;6.70;99.90;;;;;;5128984;27;20025;-75
2022/09/30 04:44:43;;;;;;;;;;;6.80;99.90;;;;;;5104438;28;19918;-74
2022/09/30 04:47:08;;;;;;;;;;;6.80;99.90;;;;;;5131066;27;19912;-74
2022/09/30 04:49:34;;;;;;;;;;;6.80;99.90;;;;;;5116473;27;19916;-74
2022/09/30 04:51:59;;;;;;;;;;;6.90;99.90;;;;;;5130212;27;20334;-75
2022/09/30 04:54:25;;;;;;;;;;;6.90;99.90;;;;;;5102303;27;19928;-75
2022/09/30 04:56:50;;;;;;;;;;;7.00;99.90;;;;;;5106654;27;19930;-74
2022/09/30 04:59:16;;;;;;;;;;;7.00;99.90;;;;;;5131985;27;19953;-74
2022/09/30 05:01:43;;;;;;;;;;;6.90;99.90;;;;;;5105589;27;19911;-74
2022/09/30 05:04:11;;;;;;;;;;;7.00;99.90;;;;;;5116792;28;19919;-74
2022/09/30 05:06:38;;;;;;;;;;;6.90;99.90;;;;;;5126518;27;20209;-74
2022/09/30 05:09:04;;;;;;;;;;;6.90;99.90;;;;;;5127220;27;19922;-75
2022/09/30 05:11:29;;;;;;;;;;;6.80;99.90;;;;;;5134627;27;19912;-74
2022/09/30 05:13:55;;;;;;;;;;;6.80;99.90;;;;;;5129166;27;20306;-75
2022/09/30 05:16:20;;;;;;;;;;;6.80;99.90;;;;;;5097732;28;19919;-75
2022/09/30 05:18:46;;;;;;;;;;;6.80;99.90;;;;;;5126580;27;19984;-75
2022/09/30 05:21:13;;;;;;;;;;;6.80;99.90;;;;;;5135043;27;20006;-75
2022/09/30 05:23:39;;;;;;;;;;;6.70;99.90;;;;;;5132286;27;19927;-74
2022/09/30 05:26:05;;;;;;;;;;;6.90;99.90;;;;;;5110811;27;19916;-74
2022/09/30 05:28:31;;;;;;;;;;;6.80;99.90;;;;;;5132792;27;19911;-74
2022/09/30 05:30:58;;;;;;;;;;;6.80;99.90;;;;;;5128996;27;20413;-74
2022/09/30 05:33:24;;;;;;;;;;;6.80;99.90;;;;;;5125822;27;20058;-74
2022/09/30 05:35:50;;;;;;;;;;;6.80;99.90;;;;;;5129662;27;20303;-75
2022/09/30 05:38:16;;;;;;;;;;;6.70;99.90;;;;;;5123837;27;19919;-74
2022/09/30 05:40:41;;;;;;;;;;;6.60;99.90;;;;;;5140213;27;20226;-73
2022/09/30 05:43:07;;;;;;;;;;;6.60;99.90;;;;;;5127835;27;19968;-74
2022/09/30 05:45:33;;;;;;;;;;;6.60;99.90;;;;;;5121497;27;19919;-75
2022/09/30 05:47:59;;;;;;;;;;;6.70;99.90;;;;;;5111933;27;19919;-75
2022/09/30 05:50:24;;;;;;;;;;;6.60;99.90;;;;;;5114874;27;20279;-75
2022/09/30 05:52:50;;;;;;;;;;;6.60;99.90;;;;;;5111189;28;19955;-74
2022/09/30 05:55:16;;;;;;;;;;;6.60;99.90;;;;;;5101261;27;19951;-74
2022/09/30 05:57:42;;;;;;;;;;;6.70;99.90;;;;;;5111300;27;19911;-75
2022/09/30 06:00:08;;;;;;;;;;;6.60;99.90;;;;;;5108757;27;19957;-75
2022/09/30 06:02:37;;;;;;;;;;;6.60;99.90;;;;;;5110106;27;19980;-75
2022/09/30 06:05:05;;;;;;;;;;;6.50;99.90;;;;;;5112220;27;19951;-75
2022/09/30 06:07:34;;;;;;;;;;;6.60;99.90;;;;;;5109323;28;19912;-75
2022/09/30 06:10:01;;;;;;;;;;;6.60;99.90;;;;;;5102772;27;20329;-74
2022/09/30 06:12:27;;;;;;;;;;;6.60;99.90;;;;;;5113308;27;19916;-74
2022/09/30 06:14:53;;;;;;;;;;;6.60;99.90;;;;;;5110382;28;19912;-75
2022/09/30 06:17:19;;;;;;;;;;;6.60;99.90;;;;;;5111863;28;19961;-75
2022/09/30 06:19:45;;;;;;;;;;;6.60;99.90;;;;;;5109488;28;19915;-74
2022/09/30 06:22:10;;;;;;;;;;;6.60;99.90;;;;;;5112995;28;19919;-74
2022/09/30 06:24:36;;;;;;;;;;;6.70;99.90;;;;;;5137627;27;20371;-75
2022/09/30 06:27:01;;;;;;;;;;;6.80;99.90;;;;;;5112475;28;19915;-74
2022/09/30 06:29:27;;;;;;;;;;;6.80;99.90;;;;;;5106657;27;20226;-74
2022/09/30 06:31:53;;;;;;;;;;;6.90;99.90;;;;;;5114988;28;20302;-74
2022/09/30 06:34:18;;;;;;;;;;;7.00;99.90;;;;;;5112464;28;20412;-74
2022/09/30 06:36:44;;;;;;;;;;;7.10;99.90;;;;;;5108837;27;19915;-75
2022/09/30 06:39:09;;;;;;;;;;;7.20;99.90;;;;;;5110014;28;19920;-75
2022/09/30 06:41:38;;;;;;;;;;;7.30;99.90;;;;;;5110906;28;19919;-75
2022/09/30 06:44:04;;;;;;;;;;;7.50;99.90;;;;;;5113594;28;20331;-75
2022/09/30 06:46:29;;;;;;;;;;;7.70;99.90;;;;;;5106557;27;19994;-75
2022/09/30 06:48:56;;;;;;;;;;;7.80;99.90;;;;;;5108763;27;20199;-75
2022/09/30 06:51:24;;;;;;;;;;;8.00;99.90;;;;;;5111861;27;20014;-75
2022/09/30 06:53:54;;;;;;;;;;;8.40;99.90;;;;;;5132235;27;20302;-74
2022/09/30 06:56:20;;;;;;;;;;;8.80;99.90;;;;;;5131747;27;19984;-75
2022/09/30 06:58:45;;;;;;;;;;;9.10;99.90;;;;;;5112820;27;20377;-75
2022/09/30 07:01:14;;;;;;;;;;;9.20;99.90;;;;;;5129842;27;19930;-75
2022/09/30 07:03:41;;;;;;;;;;;9.20;99.90;;;;;;5115732;27;19911;-75
2022/09/30 07:06:07;;;;;;;;;;;9.30;99.90;;;;;;5130365;27;20231;-75
2022/09/30 07:08:34;;;;;;;;;;;9.40;99.90;;;;;;5128197;27;19919;-74
2022/09/30 07:11:01;;;;;;;;;;;9.40;99.90;;;;;;5128160;27;19919;-74
2022/09/30 07:13:27;;;;;;;;;;;9.60;99.90;;;;;;5110447;27;19923;-74
2022/09/30 07:15:55;;;;;;;;;;;9.70;99.90;;;;;;5127813;27;21454;-73
2022/09/30 07:18:21;;;;;;;;;;;9.80;99.90;;;;;;5127012;27;19912;-74
2022/09/30 07:20:47;;;;;;;;;;;9.90;99.90;;;;;;5131542;27;20509;-73
2022/09/30 07:23:13;;;;;;;;;;;10.00;99.90;;;;;;5128047;27;19922;-74
2022/09/30 07:25:38;;;;;;;;;;;10.10;99.90;;;;;;5110401;27;19919;-73
2022/09/30 07:28:04;;;;;;;;;;;10.20;99.90;;;;;;5131563;27;19915;-73
2022/09/30 07:30:30;;;;;;;;;;;10.20;99.90;;;;;;5131043;27;20214;-73
2022/09/30 07:32:56;;;;;;;;;;;10.20;99.90;;;;;;5130516;27;19923;-73
2022/09/30 07:35:22;;;;;;;;;;;10.30;99.90;;;;;;5110129;27;19915;-73
2022/09/30 07:37:49;;;;;;;;;;;10.30;99.90;;;;;;5115056;27;19994;-73
2022/09/30 07:40:16;;;;;;;;;;;10.40;99.90;;;;;;5126076;27;19915;-73
2022/09/30 07:42:44;;;;;;;;;;;10.60;99.90;;;;;;5082921;27;20255;-73
2022/09/30 07:45:10;;;;;;;;;;;10.70;99.90;;;;;;5127533;27;20322;-72
2022/09/30 07:47:36;;;;;;;;;;;10.70;99.90;;;;;;5107065;27;19915;-72
2022/09/30 07:50:03;;;;;;;;;;;10.80;99.90;;;;;;5118392;27;19961;-73
2022/09/30 07:52:30;;;;;;;;;;;10.90;99.90;;;;;;5126329;27;20299;-73
2022/09/30 07:54:57;;;;;;;;;;;11.00;99.90;;;;;;5113905;27;20362;-73
2022/09/30 07:57:26;;;;;;;;;;;11.30;99.90;;;;;;5125515;27;19912;-73
2022/09/30 07:59:52;;;;;;;;;;;11.50;99.90;;;;;;5119643;27;19920;-73
2022/09/30 08:02:18;;;;;;;;;;;11.70;99.90;;;;;;5128114;27;19994;-73
2022/09/30 08:04:53;;;;;;;;;;;11.80;99.90;;;;;;5115240;28;19911;-73
2022/09/30 08:07:18;;;;;;;;;;;11.90;99.90;;;;;;5112382;27;20325;-74
2022/09/30 08:09:44;;;;;;;;;;;12.00;99.90;;;;;;5124666;27;19919;-73
2022/09/30 08:12:09;;;;;;;;;;;12.00;99.90;;;;;;5125180;27;19912;-73
2022/09/30 08:14:36;;;;;;;;;;;12.10;99.90;;;;;;5113343;27;19972;-73
2022/09/30 08:17:05;;;;;;;;;;;12.20;99.90;;;;;;5129624;27;19919;-73
2022/09/30 08:19:32;;;;;;;;;;;12.30;99.90;;;;;;5132755;27;19946;-73
2022/09/30 08:21:58;;;;;;;;;;;12.30;99.90;;;;;;5110532;27;19919;-74
2022/09/30 08:24:27;;;;;;;;;;;12.30;99.90;;;;;;5125901;27;20229;-74
2022/09/30 08:26:57;;;;;;;;;;;12.30;99.90;;;;;;5110426;27;19912;-74
2022/09/30 08:29:23;;;;;;;;;;;12.30;99.90;;;;;;5130876;27;19926;-74
2022/09/30 08:31:50;;;;;;;;;;;12.30;99.90;;;;;;5124758;27;19916;-74
2022/09/30 08:34:16;;;;;;;;;;;12.30;99.90;;;;;;5126318;27;19915;-74
2022/09/30 08:36:42;;;;;;;;;;;12.30;99.90;;;;;;5126197;27;20391;-74
2022/09/30 08:39:09;;;;;;;;;;;12.30;99.90;;;;;;5121323;27;19912;-74
2022/09/30 08:41:39;;;;;;;;;;;12.40;99.90;;;;;;5112402;27;21404;-74
2022/09/30 08:44:18;;;;;;;;;;;12.60;99.90;;;;;;5114308;27;19919;-75
2022/09/30 08:47:03;;;;;;;;;;;12.80;99.90;;;;;;5122577;27;20186;-72
2022/09/30 08:49:33;;;;;;;;;;;12.90;99.90;;;;;;5107379;27;19965;-73
2022/09/30 08:52:02;;;;;;;;;;;13.00;99.90;;;;;;5123530;27;19926;-74
2022/09/30 08:54:33;;;;;;;;;;;13.00;99.90;;;;;;5124770;27;20002;-72
2022/09/30 08:57:00;;;;;;;;;;;13.00;99.90;;;;;;5119202;27;19964;-74
2022/09/30 08:59:31;;;;;;;;;;;12.90;99.90;;;;;;5119207;27;19976;-73
2022/09/30 09:02:26;;;;;;;;;;;12.90;99.90;;;;;;5127350;27;19915;-73
2022/09/30 09:04:53;;;;;;;;;;;12.90;99.90;;;;;;5061887;28;20283;-74
2022/09/30 09:07:30;;;;;;;;;;;13.00;99.90;;;;;;5063936;28;19955;-73
2022/09/30 09:10:05;;;;;;;;;;;13.00;99.90;;;;;;5066853;28;19912;-74
2022/09/30 09:12:39;;;;;;;;;;;13.20;99.90;;;;;;5067193;28;19916;-74
2022/09/30 09:15:16;;;;;;;;;;;13.90;99.90;;;;;;5059931;28;19967;-74
2022/09/30 09:18:05;;;;;;;;;;;15.00;99.90;;;;;;5060458;28;20023;-72
2022/09/30 09:20:40;;;;;;;;;;;15.40;99.90;;;;;;5046628;28;20304;-73
2022/09/30 09:23:08;;;;;;;;;;;15.40;99.90;;;;;;5063511;28;19920;-73
2022/09/30 09:25:34;;;;;;;;;;;15.20;99.90;;;;;;5078324;28;20000;-72
2022/09/30 09:28:02;;;;;;;;;;;15.00;99.90;;;;;;5063752;28;19971;-73
2022/09/30 09:30:31;;;;;;;;;;;14.90;99.90;;;;;;5062666;28;19920;-75
2022/09/30 09:32:59;;;;;;;;;;;14.80;99.90;;;;;;5051378;28;20548;-74
2022/09/30 09:35:26;;;;;;;;;;;14.70;99.90;;;;;;5067707;28;19942;-72
2022/09/30 09:38:24;;;;;;;;;;;14.70;99.90;;;;;;5068738;28;19913;-72
2022/09/30 09:41:08;;;;;;;;;;;14.80;99.90;;;;;;5084100;27;19915;-72
2022/09/30 09:43:49;;;;;;;;;;;14.90;99.90;;;;;;5127306;27;19912;-73
2022/09/30 09:46:24;;;;;;;;;;;15.00;99.90;;;;;;5103905;27;20382;-72
2022/09/30 09:49:10;;;;;;;;;;;15.10;99.90;;;;;;5113313;27;19919;-72
2022/09/30 09:51:38;;;;;;;;;;;15.20;99.90;;;;;;5114421;27;19916;-73
2022/09/30 09:54:08;;;;;;;;;;;15.20;99.90;;;;;;5122172;27;20049;-72
2022/09/30 09:56:39;;;;;;;;;;;15.20;99.90;;;;;;5105206;28;20360;-72
2022/09/30 09:59:17;;;;;;;;;;;15.20;99.90;;;;;;5122082;27;19912;-72
2022/09/30 10:01:52;;;;;;;;;;;15.30;99.90;;;;;;5123260;27;19923;-72
2022/09/30 10:04:25;;;;;;;;;;;15.60;99.90;;;;;;5125912;27;19916;-74
2022/09/30 10:06:52;;;;;;;;;;;16.00;99.90;;;;;;5108765;28;20362;-72
2022/09/30 10:09:31;;;;;;;;;;;16.50;99.90;;;;;;5108723;27;20007;-74
2022/09/30 10:12:09;;;;;;;;;;;16.70;99.90;;;;;;5105348;27;20026;-74
2022/09/30 10:14:44;;;;;;;;;;;16.90;99.90;;;;;;5125541;27;19933;-72
2022/09/30 10:17:21;;;;;;;;;;;16.90;99.90;;;;;;5125136;27;19919;-72
2022/09/30 10:20:14;;;;;;;;;;;17.00;99.90;;;;;;5129164;27;20018;-73
2022/09/30 10:22:49;;;;;;;;;;;17.00;99.90;;;;;;5131938;27;19912;-75
2022/09/30 10:25:24;;;;;;;;;;;16.90;99.90;;;;;;5100926;27;19911;-71
2022/09/30 10:28:00;;;;;;;;;;;17.00;99.90;;;;;;5109151;27;20341;-71
2022/09/30 10:30:30;;;;;;;;;;;17.00;99.90;;;;;;5125846;27;19916;-72
2022/09/30 10:33:03;;;;;;;;;;;17.00;99.90;;;;;;5135640;27;19957;-71
2022/09/30 10:35:35;;;;;;;;;;;17.10;99.90;;;;;;5133852;27;19923;-71
2022/09/30 10:38:01;;;;;;;;;;;17.30;99.90;;;;;;5133335;27;20225;-71
2022/09/30 10:40:28;;;;;;;;;;;17.30;99.90;;;;;;5130735;27;19923;-74
2022/09/30 10:42:58;;;;;;;;;;;17.40;99.90;;;;;;5113320;27;20380;-74
2022/09/30 10:45:43;;;;;;;;;;;17.40;99.90;;;;;;5115208;27;19964;-71
2022/09/30 10:48:16;;;;;;;;;;;17.40;99.90;;;;;;5130964;27;19912;-72
2022/09/30 10:50:56;;;;;;;;;;;17.50;99.90;;;;;;5131551;27;19979;-73
2022/09/30 10:53:25;;;;;;;;;;;17.60;99.90;;;;;;5124691;27;19927;-72
2022/09/30 10:56:00;;;;;;;;;;;17.70;99.90;;;;;;5134410;27;19961;-72
2022/09/30 10:58:47;;;;;;;;;;;17.70;99.90;;;;;;5126529;27;19911;-72
2022/09/30 11:01:24;;;;;;;;;;;17.70;99.90;;;;;;5125750;27;19972;-73
2022/09/30 11:03:56;;;;;;;;;;;17.70;99.90;;;;;;5111384;27;20002;-73
2022/09/30 11:06:23;;;;;;;;;;;17.60;99.90;;;;;;5144139;27;20519;-73
2022/09/30 11:08:54;;;;;;;;;;;17.60;99.90;;;;;;5061583;27;19920;-73
2022/09/30 11:11:31;;;;;;;;;;;17.60;99.90;;;;;;5099374;27;20318;-74
2022/09/30 11:14:16;;;;;;;;;;;17.40;99.90;;;;;;5118053;27;19927;-71
2022/09/30 11:17:05;;;;;;;;;;;17.20;99.90;;;;;;5119080;27;20720;-71
2022/09/30 11:19:47;;;;;;;;;;;17.10;99.90;;;;;;5121336;27;19973;-72
2022/09/30 11:22:23;;;;;;;;;;;17.30;99.90;;;;;;5122315;27;19923;-72
2022/09/30 11:24:57;;;;;;;;;;;17.20;99.90;;;;;;5120172;27;19964;-71
2022/09/30 11:27:37;;;;;;;;;;;17.30;99.90;;;;;;5124471;27;20340;-71
2022/09/30 11:30:15;;;;;;;;;;;17.60;99.90;;;;;;5117463;27;19994;-71
2022/09/30 11:33:05;;;;;;;;;;;17.80;99.90;;;;;;5118685;27;20325;-72
2022/09/30 11:35:30;;;;;;;;;;;18.10;99.90;;;;;;5112502;27;19920;-72
2022/09/30 11:38:09;;;;;;;;;;;18.40;99.90;;;;;;5120916;27;19949;-72
2022/09/30 11:40:50;;;;;;;;;;;18.50;99.90;;;;;;5126128;27;20025;-72
2022/09/30 11:43:31;;;;;;;;;;;18.10;99.90;;;;;;5123957;27;19911;-72
2022/09/30 11:46:16;;;;;;;;;;;18.00;99.90;;;;;;5109729;27;19935;-73
2022/09/30 11:48:45;;;;;;;;;;;18.10;99.90;;;;;;5121445;27;19918;-72
2022/09/30 11:51:29;;;;;;;;;;;18.40;99.90;;;;;;5127356;27;19912;-70
2022/09/30 11:54:13;;;;;;;;;;;18.60;99.90;;;;;;5119632;27;19920;-73
2022/09/30 11:56:42;;;;;;;;;;;18.60;99.90;;;;;;5127604;27;19912;-72
2022/09/30 11:59:13;;;;;;;;;;;18.60;99.90;;;;;;5120829;27;19929;-71
2022/09/30 12:01:59;;;;;;;;;;;18.30;99.90;;;;;;5120679;27;20354;-73
2022/09/30 12:04:30;;;;;;;;;;;17.70;99.90;;;;;;5118598;27;19920;-72
2022/09/30 12:07:04;;;;;;;;;;;17.30;99.90;;;;;;5129053;27;19911;-73
2022/09/30 12:09:31;;;;;;;;;;;17.00;99.90;;;;;;5112052;27;20322;-72
2022/09/30 12:12:07;;;;;;;;;;;16.80;99.90;;;;;;5113134;27;20002;-73
2022/09/30 12:14:46;;;;;;;;;;;16.80;99.90;;;;;;5128039;27;19915;-73
2022/09/30 12:17:25;;;;;;;;;;;16.70;99.90;;;;;;5118200;27;19964;-72
2022/09/30 12:19:55;;;;;;;;;;;16.60;99.90;;;;;;5129469;27;19912;-72
2022/09/30 12:22:24;;;;;;;;;;;16.50;99.90;;;;;;5111461;27;20019;-73
2022/09/30 12:24:56;;;;;;;;;;;16.40;99.90;;;;;;5122636;27;20254;-72
2022/09/30 12:27:35;;;;;;;;;;;16.30;99.90;;;;;;5129598;27;19922;-73
2022/09/30 12:30:19;;;;;;;;;;;16.30;99.90;;;;;;5096868;28;19922;-72
2022/09/30 12:33:04;;;;;;;;;;;16.30;99.90;;;;;;5120513;27;20018;-72
2022/09/30 12:35:49;;;;;;;;;;;16.30;99.90;;;;;;5115966;27;19926;-72
2022/09/30 12:38:31;;;;;;;;;;;16.30;99.90;;;;;;5113355;27;19919;-71
2022/09/30 12:41:01;;;;;;;;;;;16.20;99.90;;;;;;5112121;27;19912;-71
2022/09/30 12:43:50;;;;;;;;;;;16.20;99.90;;;;;;5118170;27;19961;-71
2022/09/30 12:46:25;;;;;;;;;;;16.50;99.90;;;;;;5106065;27;19945;-71
2022/09/30 12:48:56;;;;;;;;;;;17.10;99.90;;;;;;5123301;27;19923;-72
2022/09/30 12:51:24;;;;;;;;;;;17.60;99.90;;;;;;5124969;27;19911;-72
2022/09/30 12:53:54;;;;;;;;;;;17.90;99.90;;;;;;5123379;27;19956;-71
2022/09/30 12:56:25;;;;;;;;;;;18.10;99.90;;;;;;5125878;27;19966;-72
2022/09/30 12:58:51;;;;;;;;;;;18.10;99.90;;;;;;5120791;27;19919;-72
2022/09/30 13:01:20;;;;;;;;;;;17.90;99.90;;;;;;5117131;27;19912;-72
2022/09/30 13:03:52;;;;;;;;;;;17.70;99.90;;;;;;5104545;28;20255;-72
2022/09/30 13:06:19;;;;;;;;;;;17.40;99.90;;;;;;5117181;28;19907;-72
2022/09/30 13:08:46;;;;;;;;;;;17.10;99.90;;;;;;5115608;27;19911;-71
2022/09/30 13:11:47;;;;;;;;;;;16.90;99.90;;;;;;5114400;27;19911;-71
2022/09/30 13:14:16;;;;;;;;;;;16.90;99.90;;;;;;5057110;28;19920;-71
2022/09/30 13:16:59;;;;;;;;;;;16.90;99.90;;;;;;5115324;28;20210;-71
2022/09/30 13:19:39;;;;;;;;;;;17.10;99.90;;;;;;5097343;28;20398;-71
2022/09/30 13:22:17;;;;;;;;;;;17.40;99.90;;;;;;5112893;27;21466;-70
2022/09/30 13:25:04;;;;;;;;;;;17.50;99.90;;;;;;5106934;27;20014;-70
2022/09/30 13:27:38;;;;;;;;;;;17.80;99.90;;;;;;5110097;27;19953;-71
2022/09/30 13:30:16;;;;;;;;;;;18.10;99.90;;;;;;5111929;27;19915;-71
2022/09/30 13:32:44;;;;;;;;;;;18.20;99.90;;;;;;5114095;27;20348;-72
2022/09/30 13:35:29;;;;;;;;;;;18.10;99.90;;;;;;5092531;27;21881;-72
2022/09/30 13:38:15;;;;;;;;;;;17.90;99.90;;;;;;5116698;27;20677;-71
2022/09/30 13:40:49;;;;;;;;;;;17.80;99.90;;;;;;5099279;27;20041;-72
2022/09/30 13:43:41;;;;;;;;;;;17.80;99.90;;;;;;5120894;27;19912;-71
2022/09/30 13:46:13;;;;;;;;;;;17.80;99.90;;;;;;5113940;27;19911;-74
2022/09/30 13:48:41;;;;;;;;;;;17.70;99.90;;;;;;5099720;27;19919;-71
2022/09/30 13:51:11;;;;;;;;;;;17.60;99.90;;;;;;5114795;27;20002;-72
2022/09/30 13:53:39;;;;;;;;;;;17.40;99.90;;;;;;5125406;27;19919;-71
2022/09/30 13:56:18;;;;;;;;;;;17.30;99.90;;;;;;5125446;27;19916;-71
2022/09/30 13:59:08;;;;;;;;;;;17.30;99.90;;;;;;5119391;27;19922;-71
2022/09/30 14:01:34;;;;;;;;;;;17.30;99.90;;;;;;5109723;27;19966;-72
2022/09/30 14:04:14;;;;;;;;;;;17.30;99.90;;;;;;5101942;27;20248;-72
2022/09/30 14:06:57;;;;;;;;;;;17.30;99.90;;;;;;5130188;27;20319;-71
2022/09/30 14:09:29;;;;;;;;;;;17.30;99.90;;;;;;5113167;27;19923;-71
2022/09/30 14:12:18;;;;;;;;;;;17.10;99.90;;;;;;5131517;27;19973;-71
2022/09/30 14:15:03;;;;;;;;;;;16.90;99.90;;;;;;5123430;27;20567;-71
2022/09/30 14:17:35;;;;;;;;;;;16.90;99.90;;;;;;5116156;27;19962;-72
2022/09/30 14:20:27;;;;;;;;;;;17.10;99.90;;;;;;5115993;27;19911;-71
2022/09/30 14:22:52;;;;;;;;;;;17.20;99.90;;;;;;5097839;27;19935;-71
2022/09/30 14:25:19;;;;;;;;;;;17.20;99.90;;;;;;5133418;27;20301;-72
2022/09/30 14:27:57;;;;;;;;;;;17.10;99.90;;;;;;5126580;27;20591;-72
2022/09/30 14:30:24;;;;;;;;;;;16.90;99.90;;;;;;5131060;27;19918;-70
2022/09/30 14:32:52;;;;;;;;;;;16.80;99.90;;;;;;5129014;27;19920;-71
2022/09/30 14:35:23;;;;;;;;;;;16.80;99.90;;;;;;5126347;27;19912;-72
2022/09/30 14:37:50;;;;;;;;;;;16.80;99.90;;;;;;5117470;27;19912;-71
2022/09/30 14:40:18;;;;;;;;;;;16.90;99.90;;;;;;5126392;27;20320;-71
2022/09/30 14:42:46;;;;;;;;;;;16.90;99.90;;;;;;5118569;27;20310;-72
2022/09/30 14:45:25;;;;;;;;;;;17.00;99.90;;;;;;5117943;28;19930;-71
2022/09/30 14:47:52;;;;;;;;;;;17.00;99.90;;;;;;5122983;27;19992;-72